Time;durP1;ratioP1;P1;durP2;ratioP2;P2;SDS_P1;SDS_P2;PMS_P1;PMS_P2;Temp;Humidity;BMP_temperature;BMP_pressure;BME280_temperature;BME280_humidity;BME280_pressure;Samples;Min_cycle;Max_cycle;Signal;HPM_P1;HPM_P2
2022/04/27 00:01:43;;;;;;;41.63;18.15;;;;;;;;;;5023422;28;20017;-76
2022/04/27 00:04:08;;;;;;;46.30;18.92;;;;;;;;;;5008047;28;20040;-76
2022/04/27 00:06:35;;;;;;;43.17;18.58;;;;;;;;;;5036698;28;20029;-76
2022/04/27 00:09:00;;;;;;;48.70;18.17;;;;;;;;;;5034792;28;20026;-76
2022/04/27 00:11:26;;;;;;;43.92;18.95;;;;;;;;;;5037797;28;20020;-75
2022/04/27 00:13:52;;;;;;;47.65;18.52;;;;;;;;;;5037698;28;20080;-77
2022/04/27 00:16:17;;;;;;;46.17;17.35;;;;;;;;;;5023069;28;20041;-77
2022/04/27 00:18:43;;;;;;;39.38;16.85;;;;;;;;;;5034795;28;20084;-76
2022/04/27 00:21:11;;;;;;;37.10;16.08;;;;;;;;;;5022226;28;20020;-76
2022/04/27 00:23:37;;;;;;;35.30;15.60;;;;;;;;;;5039645;28;20021;-76
2022/04/27 00:26:03;;;;;;;35.38;15.15;;;;;;;;;;5041215;28;20152;-76
2022/04/27 00:28:29;;;;;;;39.08;15.55;;;;;;;;;;5039580;28;20013;-76
2022/04/27 00:30:54;;;;;;;32.33;15.10;;;;;;;;;;5023414;28;20518;-76
2022/04/27 00:33:20;;;;;;;30.02;13.45;;;;;;;;;;5035624;28;20223;-76
2022/04/27 00:35:45;;;;;;;36.63;13.48;;;;;;;;;;5038122;28;20022;-76
2022/04/27 00:38:11;;;;;;;32.03;12.60;;;;;;;;;;5034903;28;20180;-76
2022/04/27 00:40:36;;;;;;;31.00;13.05;;;;;;;;;;5015010;28;20080;-76
2022/04/27 00:43:03;;;;;;;30.63;12.48;;;;;;;;;;5036145;28;20076;-76
2022/04/27 00:45:28;;;;;;;37.53;12.27;;;;;;;;;;5030321;28;20013;-76
2022/04/27 00:47:54;;;;;;;31.55;12.00;;;;;;;;;;5039400;28;20021;-76
2022/04/27 00:50:19;;;;;;;31.77;11.82;;;;;;;;;;5033213;28;20028;-77
2022/04/27 00:52:46;;;;;;;26.42;11.50;;;;;;;;;;5038532;28;20092;-76
2022/04/27 00:55:11;;;;;;;27.80;11.40;;;;;;;;;;5019001;28;20031;-76
2022/04/27 00:57:42;;;;;;;29.88;10.48;;;;;;;;;;5038705;28;20028;-76
2022/04/27 01:00:08;;;;;;;22.55;10.05;;;;;;;;;;5037683;28;20029;-77
2022/04/27 01:02:35;;;;;;;21.77;10.15;;;;;;;;;;5033267;28;20145;-76
2022/04/27 01:05:00;;;;;;;24.90;9.75;;;;;;;;;;5034317;28;20035;-76
2022/04/27 01:07:28;;;;;;;25.38;9.05;;;;;;;;;;5017794;28;20287;-76
2022/04/27 01:09:55;;;;;;;21.80;9.98;;;;;;;;;;5017093;28;20119;-75
2022/04/27 01:12:21;;;;;;;16.30;9.07;;;;;;;;;;5038139;28;20339;-76
2022/04/27 01:14:48;;;;;;;23.30;9.63;;;;;;;;;;5039166;28;20176;-76
2022/04/27 01:17:13;;;;;;;22.75;9.88;;;;;;;;;;5037558;28;20040;-76
2022/04/27 01:19:39;;;;;;;23.63;9.25;;;;;;;;;;5040216;28;20017;-76
2022/04/27 01:22:05;;;;;;;21.67;9.50;;;;;;;;;;5041443;28;20282;-76
2022/04/27 01:24:31;;;;;;;24.38;9.10;;;;;;;;;;5037834;28;20017;-76
2022/04/27 01:26:56;;;;;;;26.65;9.45;;;;;;;;;;5052797;28;20141;-75
2022/04/27 01:29:22;;;;;;;23.77;9.10;;;;;;;;;;5050978;28;20029;-76
2022/04/27 01:31:49;;;;;;;26.00;9.07;;;;;;;;;;5056857;28;20060;-76
2022/04/27 01:34:15;;;;;;;16.52;7.97;;;;;;;;;;5037721;28;20025;-75
2022/04/27 01:36:40;;;;;;;17.38;7.95;;;;;;;;;;5052972;28;20027;-76
2022/04/27 01:39:07;;;;;;;19.90;8.27;;;;;;;;;;5040591;28;20016;-76
2022/04/27 01:41:33;;;;;;;21.63;8.73;;;;;;;;;;5032112;28;20116;-76
2022/04/27 01:43:58;;;;;;;18.02;8.35;;;;;;;;;;5022864;28;20033;-76
2022/04/27 01:46:25;;;;;;;20.33;7.63;;;;;;;;;;5054099;28;20019;-76
2022/04/27 01:48:50;;;;;;;24.95;8.30;;;;;;;;;;5036268;28;20016;-76
2022/04/27 01:51:18;;;;;;;19.77;7.70;;;;;;;;;;5054363;28;20040;-76
2022/04/27 01:56:28;;;;;;;17.40;7.50;;;;;;;;;;5042574;28;20044;-75
2022/04/27 01:58:54;;;;;;;17.50;7.68;;;;;;;;;;5037717;28;20264;-76
2022/04/27 02:01:21;;;;;;;17.50;7.20;;;;;;;;;;5033210;28;20037;-76
2022/04/27 02:03:47;;;;;;;17.52;7.60;;;;;;;;;;5036740;28;20138;-76
2022/04/27 02:06:16;;;;;;;24.20;7.75;;;;;;;;;;5037887;28;20028;-77
2022/04/27 02:08:42;;;;;;;15.95;7.07;;;;;;;;;;5041199;28;20083;-76
2022/04/27 02:11:08;;;;;;;17.50;8.10;;;;;;;;;;5018912;28;20017;-75
2022/04/27 02:13:33;;;;;;;19.33;7.60;;;;;;;;;;5054997;28;20324;-75
2022/04/27 02:16:01;;;;;;;19.00;8.05;;;;;;;;;;5035267;28;20083;-76
2022/04/27 02:18:27;;;;;;;18.05;7.22;;;;;;;;;;5056023;28;20033;-76
2022/04/27 02:20:52;;;;;;;38.35;8.93;;;;;;;;;;5032449;28;20035;-76
2022/04/27 02:23:20;;;;;;;25.70;8.10;;;;;;;;;;5040602;28;20302;-76
2022/04/27 02:25:46;;;;;;;18.67;7.78;;;;;;;;;;5028060;28;20025;-76
2022/04/27 02:28:12;;;;;;;24.40;8.45;;;;;;;;;;5056466;28;20013;-76
2022/04/27 02:30:37;;;;;;;17.52;7.18;;;;;;;;;;5019351;28;20052;-77
2022/04/27 02:33:02;;;;;;;17.20;7.43;;;;;;;;;;5037820;28;20247;-76
2022/04/27 02:35:28;;;;;;;19.15;7.65;;;;;;;;;;5034443;28;20017;-76
2022/04/27 02:37:53;;;;;;;21.63;7.72;;;;;;;;;;5052564;28;20029;-76
2022/04/27 02:40:19;;;;;;;17.88;7.35;;;;;;;;;;5035179;28;20029;-76
2022/04/27 02:42:45;;;;;;;19.33;7.95;;;;;;;;;;5020747;28;20028;-76
2022/04/27 02:45:10;;;;;;;17.23;8.65;;;;;;;;;;5053825;28;20335;-76
2022/04/27 02:47:36;;;;;;;19.27;8.02;;;;;;;;;;5034903;28;20040;-76
2022/04/27 02:52:49;;;;;;;22.23;7.68;;;;;;;;;;5051356;28;20066;-76
2022/04/27 02:55:15;;;;;;;23.20;7.68;;;;;;;;;;5036030;28;20342;-77
2022/04/27 02:57:40;;;;;;;19.70;7.07;;;;;;;;;;5041593;28;20100;-80
2022/04/27 03:00:07;;;;;;;17.95;8.88;;;;;;;;;;5033234;28;20048;-80
2022/04/27 03:02:33;;;;;;;18.80;7.35;;;;;;;;;;5037639;28;20025;-80
2022/04/27 03:05:00;;;;;;;20.63;7.55;;;;;;;;;;5031564;28;20028;-80
2022/04/27 03:07:26;;;;;;;19.33;7.38;;;;;;;;;;5052198;28;20017;-81
2022/04/27 03:09:52;;;;;;;20.70;7.35;;;;;;;;;;5036502;28;20036;-80
2022/04/27 03:12:18;;;;;;;19.17;7.55;;;;;;;;;;5039482;28;20028;-80
2022/04/27 03:14:43;;;;;;;17.30;7.18;;;;;;;;;;5038415;28;20179;-80
2022/04/27 03:17:09;;;;;;;19.27;7.72;;;;;;;;;;5020350;28;20234;-80
2022/04/27 03:19:34;;;;;;;14.60;6.75;;;;;;;;;;5035106;28;20091;-80
2022/04/27 03:22:00;;;;;;;18.02;7.22;;;;;;;;;;5034740;28;20107;-80
2022/04/27 03:24:25;;;;;;;17.08;7.05;;;;;;;;;;5023921;28;20100;-80
2022/04/27 03:26:51;;;;;;;20.88;6.93;;;;;;;;;;5023482;28;20039;-80
2022/04/27 03:29:16;;;;;;;22.05;7.47;;;;;;;;;;5052097;28;20025;-80
2022/04/27 03:31:43;;;;;;;17.33;7.13;;;;;;;;;;5032606;28;20070;-79
2022/04/27 03:34:08;;;;;;;15.80;7.10;;;;;;;;;;5032123;28;20240;-79
2022/04/27 03:36:34;;;;;;;20.65;6.93;;;;;;;;;;5035526;28;20051;-76
2022/04/27 03:38:59;;;;;;;19.45;6.75;;;;;;;;;;5031311;28;20053;-76
2022/04/27 03:41:27;;;;;;;16.38;6.78;;;;;;;;;;5038291;28;20016;-77
2022/04/27 03:43:55;;;;;;;19.30;7.22;;;;;;;;;;5051265;28;20020;-76
2022/04/27 03:46:21;;;;;;;16.40;7.10;;;;;;;;;;5035985;28;20028;-77
2022/04/27 03:48:47;;;;;;;16.42;6.45;;;;;;;;;;5032134;28;20044;-77
2022/04/27 03:51:13;;;;;;;14.45;6.82;;;;;;;;;;5048749;28;20099;-77
2022/04/27 03:53:38;;;;;;;18.05;7.38;;;;;;;;;;5054840;28;20013;-77
2022/04/27 03:56:05;;;;;;;22.40;7.55;;;;;;;;;;5016934;28;20022;-76
2022/04/27 03:58:32;;;;;;;18.13;7.03;;;;;;;;;;5030875;28;20263;-76
2022/04/27 04:00:58;;;;;;;18.67;6.07;;;;;;;;;;5034563;28;20260;-76
2022/04/27 04:03:23;;;;;;;22.58;7.05;;;;;;;;;;5030702;28;20017;-76
2022/04/27 04:05:49;;;;;;;17.65;7.07;;;;;;;;;;5038588;28;20147;-77
2022/04/27 04:08:15;;;;;;;17.10;7.03;;;;;;;;;;5018168;28;20337;-77
2022/04/27 04:10:40;;;;;;;16.30;6.28;;;;;;;;;;5053703;28;20275;-77
2022/04/27 04:13:06;;;;;;;16.83;7.15;;;;;;;;;;5038884;28;20029;-77
2022/04/27 04:15:32;;;;;;;17.65;7.45;;;;;;;;;;5044465;28;20032;-77
2022/04/27 04:17:58;;;;;;;17.35;7.43;;;;;;;;;;5039010;28;20048;-77
2022/04/27 04:20:23;;;;;;;22.23;7.40;;;;;;;;;;5020756;28;20025;-77
2022/04/27 04:22:49;;;;;;;18.48;6.57;;;;;;;;;;5037853;28;20016;-77
2022/04/27 04:30:43;;;;;;;14.18;6.63;;;;;;;;;;5052580;28;20320;-76
2022/04/27 04:33:09;;;;;;;13.77;5.95;;;;;;;;;;5037494;28;20020;-77
2022/04/27 04:35:36;;;;;;;22.80;8.02;;;;;;;;;;5057912;28;20100;-77
2022/04/27 04:38:04;;;;;;;19.25;6.93;;;;;;;;;;5036484;28;20031;-76
2022/04/27 04:40:30;;;;;;;19.30;6.78;;;;;;;;;;5021802;28;20267;-76
2022/04/27 04:42:56;;;;;;;15.90;6.65;;;;;;;;;;5030600;28;20110;-76
2022/04/27 04:45:23;;;;;;;11.32;6.35;;;;;;;;;;5055712;28;20301;-77
2022/04/27 04:47:49;;;;;;;15.73;7.15;;;;;;;;;;5006946;28;20025;-76
2022/04/27 04:50:14;;;;;;;13.98;6.20;;;;;;;;;;5054525;28;20063;-77
2022/04/27 04:52:40;;;;;;;12.38;6.40;;;;;;;;;;5024961;28;20056;-77
2022/04/27 04:55:06;;;;;;;19.27;6.35;;;;;;;;;;5011026;28;20044;-77
2022/04/27 04:57:31;;;;;;;16.67;7.05;;;;;;;;;;5040872;28;20059;-76
2022/04/27 04:59:57;;;;;;;15.25;6.10;;;;;;;;;;5036881;28;20264;-76
2022/04/27 05:02:22;;;;;;;16.58;6.88;;;;;;;;;;5056411;28;20037;-76
2022/04/27 05:04:48;;;;;;;17.92;6.63;;;;;;;;;;5017417;28;20028;-77
2022/04/27 05:07:13;;;;;;;23.27;7.15;;;;;;;;;;5039181;28;20095;-76
2022/04/27 05:09:39;;;;;;;16.00;7.10;;;;;;;;;;5038192;28;20028;-77
2022/04/27 05:12:05;;;;;;;17.02;7.00;;;;;;;;;;5054093;28;20047;-77
2022/04/27 05:14:31;;;;;;;19.52;7.50;;;;;;;;;;5008009;28;20027;-76
2022/04/27 05:16:57;;;;;;;18.50;7.57;;;;;;;;;;5057511;28;20013;-76
2022/04/27 05:19:23;;;;;;;15.98;7.00;;;;;;;;;;5054179;28;20056;-76
2022/04/27 05:21:49;;;;;;;15.55;6.82;;;;;;;;;;5022754;28;20284;-80
2022/04/27 05:24:14;;;;;;;21.20;7.13;;;;;;;;;;5040161;28;20309;-80
2022/04/27 05:26:40;;;;;;;21.45;7.47;;;;;;;;;;5019894;28;20108;-80
2022/04/27 05:31:55;;;;;;;17.58;6.65;;;;;;;;;;5036593;28;22664;-77
2022/04/27 05:34:21;;;;;;;22.27;8.17;;;;;;;;;;5016020;28;20088;-76
2022/04/27 05:36:47;;;;;;;15.50;7.25;;;;;;;;;;5031618;28;20028;-76
2022/04/27 05:39:13;;;;;;;17.02;7.28;;;;;;;;;;5036867;28;20021;-77
2022/04/27 05:41:39;;;;;;;24.55;8.13;;;;;;;;;;5056480;28;20172;-77
2022/04/27 05:44:09;;;;;;;19.10;8.48;;;;;;;;;;5036068;28;20020;-77
2022/04/27 05:46:39;;;;;;;24.20;9.13;;;;;;;;;;5035039;28;20301;-76
2022/04/27 05:49:05;;;;;;;22.67;8.88;;;;;;;;;;5053132;28;20044;-77
2022/04/27 05:51:31;;;;;;;20.92;8.70;;;;;;;;;;5035068;28;20283;-76
2022/04/27 05:53:57;;;;;;;30.23;9.50;;;;;;;;;;5036200;28;20017;-75
2022/04/27 05:56:24;;;;;;;23.05;8.98;;;;;;;;;;5036550;28;20272;-76
2022/04/27 05:58:50;;;;;;;24.25;9.25;;;;;;;;;;5034245;28;20010;-77
2022/04/27 06:01:16;;;;;;;39.50;9.60;;;;;;;;;;5034955;28;20045;-77
2022/04/27 06:03:42;;;;;;;21.48;9.60;;;;;;;;;;5048056;28;20016;-76
2022/04/27 06:06:07;;;;;;;19.42;8.48;;;;;;;;;;5053688;28;20114;-76
2022/04/27 06:08:33;;;;;;;25.38;9.13;;;;;;;;;;5021278;28;20017;-76
2022/04/27 06:10:58;;;;;;;26.00;9.18;;;;;;;;;;5037167;28;20263;-77
2022/04/27 06:13:24;;;;;;;27.58;8.90;;;;;;;;;;5038388;28;20062;-77
2022/04/27 06:15:51;;;;;;;25.77;10.32;;;;;;;;;;5033680;28;20044;-76
2022/04/27 06:18:16;;;;;;;23.30;9.38;;;;;;;;;;5056244;28;20412;-77
2022/04/27 06:20:42;;;;;;;29.00;10.85;;;;;;;;;;5018887;28;20025;-77
2022/04/27 06:23:09;;;;;;;33.50;11.18;;;;;;;;;;5022397;28;20028;-77
2022/04/27 06:25:35;;;;;;;40.67;11.50;;;;;;;;;;5038061;28;20267;-76
2022/04/27 06:28:02;;;;;;;33.70;12.57;;;;;;;;;;5032286;28;20106;-77
2022/04/27 06:30:27;;;;;;;35.38;11.63;;;;;;;;;;5050887;28;20015;-75
2022/04/27 06:32:53;;;;;;;41.70;12.52;;;;;;;;;;5032422;28;20030;-76
2022/04/27 06:35:18;;;;;;;29.50;11.63;;;;;;;;;;5032074;28;20236;-76
2022/04/27 06:37:45;;;;;;;39.33;12.57;;;;;;;;;;5005660;28;20160;-76
2022/04/27 06:40:11;;;;;;;42.70;12.65;;;;;;;;;;5033384;28;20024;-76
2022/04/27 06:42:37;;;;;;;43.03;14.45;;;;;;;;;;5013235;28;20012;-76
2022/04/27 06:45:03;;;;;;;48.17;15.80;;;;;;;;;;5036421;28;20036;-75
2022/04/27 06:47:29;;;;;;;40.55;13.55;;;;;;;;;;5050828;28;20013;-76
2022/04/27 06:49:54;;;;;;;43.40;14.18;;;;;;;;;;5021616;28;20143;-76
2022/04/27 06:52:20;;;;;;;39.90;14.10;;;;;;;;;;5016039;28;20055;-76
2022/04/27 06:54:46;;;;;;;38.47;12.63;;;;;;;;;;5036585;28;20027;-75
2022/04/27 06:57:11;;;;;;;27.10;11.68;;;;;;;;;;5007042;28;20084;-76
2022/04/27 06:59:37;;;;;;;38.05;14.35;;;;;;;;;;5033674;28;20028;-80
2022/04/27 07:02:04;;;;;;;38.20;12.52;;;;;;;;;;5037928;28;20175;-79
2022/04/27 07:04:32;;;;;;;35.72;12.88;;;;;;;;;;5022289;28;20017;-80
2022/04/27 07:06:58;;;;;;;37.58;13.57;;;;;;;;;;5040187;28;20335;-79
2022/04/27 07:09:24;;;;;;;55.40;15.25;;;;;;;;;;5033386;28;20032;-80
2022/04/27 07:11:49;;;;;;;57.70;16.83;;;;;;;;;;5036996;28;20088;-81
2022/04/27 07:14:16;;;;;;;49.60;15.38;;;;;;;;;;5037647;28;20033;-81
2022/04/27 07:16:45;;;;;;;45.83;14.75;;;;;;;;;;5034449;28;20226;-82
2022/04/27 07:19:11;;;;;;;50.95;16.80;;;;;;;;;;5033555;28;20049;-80
2022/04/27 07:21:54;;;;;;;43.00;16.08;;;;;;;;;;5034252;28;20032;-82
2022/04/27 07:24:20;;;;;;;47.05;15.88;;;;;;;;;;5053921;28;20024;-75
2022/04/27 07:26:46;;;;;;;56.70;18.17;;;;;;;;;;5018445;28;20017;-76
2022/04/27 07:29:12;;;;;;;51.65;17.15;;;;;;;;;;5029689;28;20025;-76
2022/04/27 07:31:37;;;;;;;65.22;17.13;;;;;;;;;;5015328;28;20183;-76
2022/04/27 07:34:02;;;;;;;58.10;19.48;;;;;;;;;;5033661;28;20021;-77
2022/04/27 07:36:28;;;;;;;63.53;18.77;;;;;;;;;;5017172;28;20018;-76
2022/04/27 07:38:53;;;;;;;52.40;17.98;;;;;;;;;;5046841;28;20019;-76
2022/04/27 07:41:19;;;;;;;56.35;19.63;;;;;;;;;;5031289;28;20263;-76
2022/04/27 07:43:44;;;;;;;66.38;19.05;;;;;;;;;;5032227;28;20021;-75
2022/04/27 07:46:11;;;;;;;59.38;17.60;;;;;;;;;;5035371;28;20040;-74
2022/04/27 07:48:37;;;;;;;56.15;18.50;;;;;;;;;;5050343;28;20263;-75
2022/04/27 07:51:04;;;;;;;53.97;15.80;;;;;;;;;;5023483;28;20291;-75
2022/04/27 07:53:30;;;;;;;60.38;18.90;;;;;;;;;;5041537;28;20017;-75
2022/04/27 07:55:55;;;;;;;47.33;17.17;;;;;;;;;;5058258;28;20020;-75
2022/04/27 07:58:21;;;;;;;65.55;18.50;;;;;;;;;;5045209;28;20050;-75
2022/04/27 08:00:46;;;;;;;43.90;18.20;;;;;;;;;;5036185;28;20080;-75
2022/04/27 08:03:12;;;;;;;54.47;17.77;;;;;;;;;;5032529;28;20160;-75
2022/04/27 08:05:37;;;;;;;54.28;17.33;;;;;;;;;;5044323;28;20024;-75
2022/04/27 08:08:03;;;;;;;47.38;16.42;;;;;;;;;;5039519;28;20021;-75
2022/04/27 08:10:29;;;;;;;49.53;16.08;;;;;;;;;;5039157;28;20020;-75
2022/04/27 08:12:55;;;;;;;43.53;17.88;;;;;;;;;;5025273;28;20321;-75
2022/04/27 08:15:22;;;;;;;61.55;18.88;;;;;;;;;;5038301;28;20176;-75
2022/04/27 08:18:02;;;;;;;55.83;16.92;;;;;;;;;;5035914;28;20051;-75
2022/04/27 08:23:20;;;;;;;43.15;15.98;;;;;;;;;;5050635;28;20016;-75
2022/04/27 08:25:46;;;;;;;60.38;16.40;;;;;;;;;;5020087;28;20021;-75
2022/04/27 08:28:13;;;;;;;39.47;16.30;;;;;;;;;;5052988;28;20020;-76
2022/04/27 08:30:43;;;;;;;59.15;17.55;;;;;;;;;;5052174;28;20086;-76
2022/04/27 08:33:09;;;;;;;50.90;16.42;;;;;;;;;;5051714;28;20053;-76
2022/04/27 08:35:36;;;;;;;45.55;17.95;;;;;;;;;;5020214;28;20028;-77
2022/04/27 08:38:03;;;;;;;34.47;16.08;;;;;;;;;;5040689;28;20021;-76
2022/04/27 08:40:29;;;;;;;46.65;17.92;;;;;;;;;;5034982;28;20170;-76
2022/04/27 08:42:56;;;;;;;48.13;17.60;;;;;;;;;;5023420;28;20022;-76
2022/04/27 08:45:22;;;;;;;42.38;16.30;;;;;;;;;;5042405;28;20013;-76
2022/04/27 08:47:49;;;;;;;43.28;17.10;;;;;;;;;;5039168;28;20040;-77
2022/04/27 08:50:20;;;;;;;39.95;15.80;;;;;;;;;;5052455;28;20036;-77
2022/04/27 08:52:46;;;;;;;42.03;16.75;;;;;;;;;;5039456;28;20017;-76
2022/04/27 08:55:13;;;;;;;43.55;16.63;;;;;;;;;;5020690;28;20020;-77
2022/04/27 08:57:39;;;;;;;40.25;16.02;;;;;;;;;;5049480;28;20029;-76
2022/04/27 09:00:07;;;;;;;39.05;16.00;;;;;;;;;;5038128;28;20032;-76
2022/04/27 09:02:33;;;;;;;45.50;16.38;;;;;;;;;;5040869;28;20012;-77
2022/04/27 09:05:19;;;;;;;34.65;15.80;;;;;;;;;;5043600;28;20104;-76
2022/04/27 09:07:53;;;;;;;40.25;17.00;;;;;;;;;;5037966;28;20083;-77
2022/04/27 09:10:24;;;;;;;42.13;16.88;;;;;;;;;;5037056;28;20069;-77
2022/04/27 09:12:55;;;;;;;38.70;15.07;;;;;;;;;;5037853;28;20021;-76
2022/04/27 09:15:23;;;;;;;39.08;15.30;;;;;;;;;;5030463;28;20040;-77
2022/04/27 09:20:47;;;;;;;42.15;15.40;;;;;;;;;;5056558;28;20035;-77
2022/04/27 09:23:21;;;;;;;41.70;16.63;;;;;;;;;;5032110;28;20169;-77
2022/04/27 09:25:55;;;;;;;44.63;16.80;;;;;;;;;;5053462;28;20017;-77
2022/04/27 09:28:30;;;;;;;34.58;16.85;;;;;;;;;;5051780;28;20020;-77
2022/04/27 09:30:56;;;;;;;41.78;14.57;;;;;;;;;;5031293;28;20013;-76
2022/04/27 09:33:36;;;;;;;34.92;14.00;;;;;;;;;;5003610;28;20022;-76
2022/04/27 09:36:18;;;;;;;37.70;15.30;;;;;;;;;;5028946;28;20164;-77
2022/04/27 09:38:43;;;;;;;37.00;14.20;;;;;;;;;;5030357;28;20391;-76
2022/04/27 09:41:09;;;;;;;36.55;13.30;;;;;;;;;;5052054;28;20020;-76
2022/04/27 09:43:46;;;;;;;34.72;13.88;;;;;;;;;;5036043;28;20020;-77
2022/04/27 09:46:22;;;;;;;28.50;12.25;;;;;;;;;;5059093;28;20025;-76
2022/04/27 09:49:09;;;;;;;39.65;14.07;;;;;;;;;;5034071;28;20256;-77
2022/04/27 09:51:35;;;;;;;31.70;14.13;;;;;;;;;;5055318;28;20028;-76
2022/04/27 09:54:02;;;;;;;33.30;14.45;;;;;;;;;;5041246;28;20055;-76
2022/04/27 09:56:38;;;;;;;35.05;14.15;;;;;;;;;;5032207;28;20021;-76
2022/04/27 09:59:08;;;;;;;32.70;14.18;;;;;;;;;;5047167;28;20406;-77
2022/04/27 10:01:36;;;;;;;34.45;14.15;;;;;;;;;;5051885;28;20088;-76
2022/04/27 10:04:04;;;;;;;29.33;13.63;;;;;;;;;;5032966;28;20171;-77
2022/04/27 10:06:30;;;;;;;63.83;17.20;;;;;;;;;;5021008;28;20017;-76
2022/04/27 10:08:59;;;;;;;26.73;11.98;;;;;;;;;;5022521;28;20409;-75
2022/04/27 10:11:29;;;;;;;35.67;14.63;;;;;;;;;;5032812;28;20148;-76
2022/04/27 10:13:55;;;;;;;39.58;14.48;;;;;;;;;;5025806;28;20060;-76
2022/04/27 10:16:23;;;;;;;31.38;12.63;;;;;;;;;;5051323;28;20061;-76
2022/04/27 10:18:50;;;;;;;37.97;15.23;;;;;;;;;;5047497;28;20024;-76
2022/04/27 10:21:39;;;;;;;32.50;12.90;;;;;;;;;;5023085;28;20025;-75
2022/04/27 10:24:07;;;;;;;39.08;12.13;;;;;;;;;;5032944;28;20175;-77
2022/04/27 10:26:33;;;;;;;27.45;11.85;;;;;;;;;;5042272;28;20047;-76
2022/04/27 10:29:06;;;;;;;32.05;12.85;;;;;;;;;;5035836;28;20032;-76
2022/04/27 10:31:44;;;;;;;30.25;11.52;;;;;;;;;;5021304;28;20091;-76
2022/04/27 10:34:22;;;;;;;28.88;11.98;;;;;;;;;;5032318;28;20329;-76
2022/04/27 10:36:51;;;;;;;28.80;11.73;;;;;;;;;;5040045;28;20044;-77
2022/04/27 10:39:22;;;;;;;31.75;11.63;;;;;;;;;;5034369;28;20021;-76
2022/04/27 10:41:49;;;;;;;38.63;12.55;;;;;;;;;;5034410;28;20025;-76
2022/04/27 10:44:15;;;;;;;30.45;11.93;;;;;;;;;;5036646;28;20017;-77
2022/04/27 10:46:44;;;;;;;24.20;10.57;;;;;;;;;;5032821;28;20135;-77
2022/04/27 10:49:31;;;;;;;26.58;10.23;;;;;;;;;;5034172;28;20287;-76
2022/04/27 10:52:07;;;;;;;25.60;8.68;;;;;;;;;;5053420;28;20084;-76
2022/04/27 10:54:34;;;;;;;20.75;8.25;;;;;;;;;;5059388;28;20012;-76
2022/04/27 10:57:15;;;;;;;24.40;9.57;;;;;;;;;;5026682;28;20017;-76
2022/04/27 10:59:51;;;;;;;23.17;8.93;;;;;;;;;;5036116;28;20024;-76
2022/04/27 11:02:41;;;;;;;27.92;10.60;;;;;;;;;;5047291;28;20013;-76
2022/04/27 11:05:10;;;;;;;27.52;11.80;;;;;;;;;;5035784;28;20028;-75
2022/04/27 11:07:44;;;;;;;20.95;10.23;;;;;;;;;;5036556;28;20024;-76
2022/04/27 11:10:17;;;;;;;29.65;12.23;;;;;;;;;;5025039;28;20027;-75
2022/04/27 11:12:44;;;;;;;;;;;;;;;;;;5048311;28;20017;-76
2022/04/27 11:15:13;;;;;;;26.85;12.10;;;;;;;;;;5029406;28;20008;-76
2022/04/27 11:17:40;;;;;;;41.38;13.68;;;;;;;;;;5037957;28;20024;-76
2022/04/27 11:20:21;;;;;;;32.00;12.80;;;;;;;;;;5045645;28;20017;-76
2022/04/27 11:22:50;;;;;;;34.75;12.60;;;;;;;;;;5044556;28;20012;-76
2022/04/27 11:25:26;;;;;;;23.33;12.07;;;;;;;;;;5046798;28;20024;-77
2022/04/27 11:27:51;;;;;;;30.30;11.73;;;;;;;;;;5047801;28;20092;-77
2022/04/27 11:30:18;;;;;;;26.13;11.75;;;;;;;;;;5031353;28;20075;-76
2022/04/27 11:32:48;;;;;;;33.28;12.65;;;;;;;;;;5046394;28;20481;-76
2022/04/27 11:35:15;;;;;;;30.00;11.95;;;;;;;;;;5033267;28;20244;-76
2022/04/27 11:37:40;;;;;;;31.33;11.77;;;;;;;;;;5022063;28;20036;-76
2022/04/27 11:40:20;;;;;;;31.67;11.30;;;;;;;;;;5034864;28;20088;-76
2022/04/27 11:42:47;;;;;;;24.25;12.45;;;;;;;;;;5035479;28;20044;-76
2022/04/27 11:45:20;;;;;;;26.35;11.75;;;;;;;;;;5050924;28;20267;-76
2022/04/27 11:48:03;;;;;;;22.52;10.80;;;;;;;;;;5042376;28;20071;-76
2022/04/27 11:50:32;;;;;;;25.88;10.45;;;;;;;;;;5031413;28;20025;-76
2022/04/27 11:53:06;;;;;;;29.00;12.38;;;;;;;;;;5022438;28;20025;-76
2022/04/27 11:55:33;;;;;;;24.88;11.80;;;;;;;;;;5054776;28;20045;-76
2022/04/27 11:57:59;;;;;;;24.13;11.43;;;;;;;;;;5033347;28;20307;-76
2022/04/27 12:00:27;;;;;;;28.77;13.00;;;;;;;;;;5035450;28;20043;-76
2022/04/27 12:02:53;;;;;;;33.30;11.48;;;;;;;;;;5016419;28;20005;-75
2022/04/27 12:05:33;;;;;;;29.95;14.05;;;;;;;;;;5054818;28;20023;-75
2022/04/27 12:08:01;;;;;;;30.63;14.50;;;;;;;;;;5032379;28;20020;-75
2022/04/27 12:10:27;;;;;;;34.50;15.30;;;;;;;;;;5030451;28;20021;-75
2022/04/27 12:12:52;;;;;;;29.55;13.13;;;;;;;;;;5049353;28;20349;-75
2022/04/27 12:15:25;;;;;;;36.17;14.43;;;;;;;;;;5035615;28;20047;-75
2022/04/27 12:17:53;;;;;;;37.17;14.93;;;;;;;;;;5036835;28;20039;-76
2022/04/27 12:20:37;;;;;;;36.05;14.25;;;;;;;;;;5022647;28;20035;-76
2022/04/27 12:23:12;;;;;;;34.97;13.93;;;;;;;;;;5022488;28;20148;-76
2022/04/27 12:25:53;;;;;;;32.00;12.65;;;;;;;;;;5046929;28;20018;-76
2022/04/27 12:28:21;;;;;;;23.73;10.98;;;;;;;;;;5053392;28;20020;-76
2022/04/27 12:30:52;;;;;;;29.40;11.73;;;;;;;;;;5055008;28;20066;-75
2022/04/27 12:33:20;;;;;;;22.75;11.32;;;;;;;;;;5054419;28;20017;-76
2022/04/27 12:38:31;;;;;;;23.73;9.45;;;;;;;;;;5046163;28;20019;-76
2022/04/27 12:40:59;;;;;;;26.20;9.80;;;;;;;;;;5053704;28;20063;-75
2022/04/27 12:43:25;;;;;;;25.75;10.50;;;;;;;;;;5058097;28;20088;-76
2022/04/27 12:46:11;;;;;;;36.63;10.88;;;;;;;;;;5013530;28;20410;-77
2022/04/27 12:48:38;;;;;;;30.42;10.07;;;;;;;;;;5036483;28;20032;-75
2022/04/27 12:51:05;;;;;;;36.75;11.98;;;;;;;;;;5040385;28;20256;-76
2022/04/27 12:53:32;;;;;;;45.90;12.65;;;;;;;;;;5040469;28;20021;-77
2022/04/27 12:56:02;;;;;;;34.17;10.65;;;;;;;;;;5017357;28;20018;-77
2022/04/27 12:58:29;;;;;;;37.63;10.63;;;;;;;;;;5039955;28;20017;-76
2022/04/27 13:00:55;;;;;;;31.60;10.77;;;;;;;;;;5043226;28;20028;-76
2022/04/27 13:03:22;;;;;;;29.13;10.43;;;;;;;;;;5025751;28;20328;-76
2022/04/27 13:05:50;;;;;;;32.85;9.88;;;;;;;;;;5040768;28;20013;-76
2022/04/27 13:08:16;;;;;;;20.55;10.38;;;;;;;;;;5039763;28;20070;-75
2022/04/27 13:13:27;;;;;;;24.77;11.02;;;;;;;;;;5057111;28;20489;-76
2022/04/27 13:15:53;;;;;;;29.83;11.40;;;;;;;;;;5056823;28;20056;-77
2022/04/27 13:18:19;;;;;;;36.40;11.50;;;;;;;;;;5042063;28;20017;-76
2022/04/27 13:20:48;;;;;;;22.83;9.52;;;;;;;;;;5038495;28;20314;-76
2022/04/27 13:23:14;;;;;;;31.33;10.98;;;;;;;;;;5038409;28;20013;-76
2022/04/27 13:25:39;;;;;;;28.80;11.00;;;;;;;;;;5036128;28;20021;-76
2022/04/27 13:28:06;;;;;;;28.27;11.20;;;;;;;;;;5020011;28;20118;-76
2022/04/27 13:30:32;;;;;;;21.25;9.77;;;;;;;;;;5019387;28;20017;-75
2022/04/27 13:32:58;;;;;;;31.13;11.05;;;;;;;;;;5036839;28;20128;-75
2022/04/27 13:35:24;;;;;;;38.10;11.15;;;;;;;;;;5030709;28;20025;-76
2022/04/27 13:37:50;;;;;;;29.23;11.05;;;;;;;;;;5038012;28;20017;-76
2022/04/27 13:40:16;;;;;;;59.13;13.65;;;;;;;;;;5028272;28;20040;-76
2022/04/27 13:42:42;;;;;;;38.83;10.85;;;;;;;;;;5056929;28;20016;-76
2022/04/27 13:45:10;;;;;;;44.25;11.63;;;;;;;;;;5049304;28;20049;-77
2022/04/27 13:47:36;;;;;;;29.73;8.75;;;;;;;;;;5037886;28;20251;-76
2022/04/27 13:50:02;;;;;;;55.72;12.25;;;;;;;;;;5050306;28;20070;-76
2022/04/27 13:52:28;;;;;;;35.40;9.40;;;;;;;;;;5019772;28;20488;-77
2022/04/27 13:54:53;;;;;;;29.60;9.50;;;;;;;;;;5053853;28;20021;-77
2022/04/27 13:57:19;;;;;;;34.00;9.65;;;;;;;;;;5025482;28;20024;-76
2022/04/27 13:59:44;;;;;;;27.98;9.55;;;;;;;;;;5056603;28;20202;-77
2022/04/27 14:02:13;;;;;;;34.97;10.52;;;;;;;;;;5050676;28;20024;-76
2022/04/27 14:04:40;;;;;;;33.03;10.43;;;;;;;;;;5052490;28;20024;-76
2022/04/27 14:07:05;;;;;;;28.73;10.80;;;;;;;;;;5037877;28;20024;-77
2022/04/27 14:09:31;;;;;;;27.58;9.40;;;;;;;;;;5020108;28;20024;-77
2022/04/27 14:14:40;;;;;;;31.80;10.43;;;;;;;;;;5036335;28;20498;-75
2022/04/27 14:19:50;;;;;;;25.60;8.45;;;;;;;;;;5010554;28;20150;-75
2022/04/27 14:22:16;;;;;;;25.02;8.15;;;;;;;;;;5051634;28;20017;-74
2022/04/27 14:24:41;;;;;;;29.75;8.45;;;;;;;;;;5037812;28;20059;-74
2022/04/27 14:27:07;;;;;;;30.42;9.02;;;;;;;;;;5037047;28;20017;-75
2022/04/27 14:29:33;;;;;;;20.42;8.38;;;;;;;;;;5055554;28;20029;-75
2022/04/27 14:32:02;;;;;;;27.20;9.13;;;;;;;;;;5042431;28;20024;-75
2022/04/27 14:34:29;;;;;;;31.00;8.77;;;;;;;;;;5034955;28;20013;-74
2022/04/27 14:36:56;;;;;;;32.28;9.45;;;;;;;;;;5039816;28;20020;-74
2022/04/27 14:39:21;;;;;;;31.65;10.20;;;;;;;;;;5016386;28;20285;-75
2022/04/27 14:41:47;;;;;;;31.75;9.68;;;;;;;;;;5056917;28;20031;-74
2022/04/27 14:44:12;;;;;;;33.05;10.68;;;;;;;;;;5039017;28;20021;-75
2022/04/27 14:46:38;;;;;;;29.70;10.02;;;;;;;;;;5053550;28;20013;-75
2022/04/27 14:49:05;;;;;;;27.75;9.60;;;;;;;;;;5024871;28;20305;-75
2022/04/27 14:51:31;;;;;;;22.00;7.85;;;;;;;;;;5013846;28;20021;-75
2022/04/27 14:53:57;;;;;;;24.85;8.10;;;;;;;;;;5057126;28;20068;-74
2022/04/27 14:56:22;;;;;;;20.85;7.65;;;;;;;;;;5040407;28;20016;-75